Kezdőlap
METAR-TAF:

METAR-TAF

Repülőterek :

Kuvaitváros, Kuvait

földrajzi szélesség: 29-13N, földrajzi hosszúság: 047-59E, magasság: 55 m

Jelenlegi meteorológiai megfigyelések

A jelentés 46 perccel ezelõtt készült, 03:00 UTC
Nyugati szél 3 kt
Hőmérséklet 15°C
Páratartalom 100%
Légköri nyomás 1018 hPa
Látótávolság: 8000 m

METAR: OKBK 100300Z 27003KT 8000 NSC 15/15 Q1018 NOSIG

Idő: 06:46 (03:46 UTC)

Előrejelzés

A jelentés 5 órával és 1 perccel ezelõtt készült, 22:45 UTC
Az előrejelzés 10-én 00 óra UTC és 11-én 06 óra UTC között érvényes
Különbözõ irányokból fújó szél 3 kt
Látótávolság: 7000 m
10-én 00 óra UTC és 10-én 04 óra UTC között ideiglenes
Látótávolság: 4000 m
Párásság

TAF: OKBK 092245Z 1000/1106 VRB03KT 7000 NSC TEMPO 1000/1004 4000 BR

Meteorológiai megfigyelések és előrejelzések több, mint 4000 repülőtéren (METAR és TAF jelentéseket).

A térképen piros és sárga pontok jelzik az elérhető meteorológiai állomásokat.

Mozgassa az egeret a pont fölött, hogy megjelenjen az állomás neve.

Azután kattintson az időjárási megfigyelések és előrejelzések megtekintéséhez.

A térkép megváltoztatása: kattintson a fekete keresztel jelölt zöld gombra ráközelítéshez, a vonallal jelölt zöld gombra távolításhoz, vagy a zöld nyilakra a szomszédos térképek eléréséhez.


METAR-TAF: